Time;durP1;ratioP1;P1;durP2;ratioP2;P2;SDS_P1;SDS_P2;PMS_P1;PMS_P2;Temp;Humidity;BMP_temperature;BMP_pressure;BME280_temperature;BME280_humidity;BME280_pressure;Samples;Min_cycle;Max_cycle;Signal;HPM_P1;HPM_P2
2021/03/09 00:01:46;;;;;;;7.03;4.55;;;2.50;99.90;;;;;;5092353;28;20226;-71
2021/03/09 00:04:12;;;;;;;8.00;3.75;;;2.50;99.90;;;;;;5092769;28;20210;-71
2021/03/09 00:06:38;;;;;;;12.05;5.45;;;2.50;99.90;;;;;;5092134;28;20287;-71
2021/03/09 00:09:06;;;;;;;7.15;5.20;;;2.50;99.90;;;;;;5092362;28;20308;-71
2021/03/09 00:11:32;;;;;;;12.23;4.97;;;2.50;99.90;;;;;;5092168;28;20314;-71
2021/03/09 00:13:58;;;;;;;8.95;4.93;;;2.50;99.90;;;;;;5092629;28;20213;-71
2021/03/09 00:16:25;;;;;;;10.10;5.10;;;2.40;99.90;;;;;;5092335;28;20293;-70
2021/03/09 00:18:52;;;;;;;10.45;5.32;;;2.40;99.90;;;;;;5092195;28;20656;-71
2021/03/09 00:21:18;;;;;;;9.23;5.13;;;2.40;99.90;;;;;;5092313;28;20218;-70
2021/03/09 00:23:44;;;;;;;11.55;5.85;;;2.40;99.90;;;;;;5092297;28;20731;-70
2021/03/09 00:26:11;;;;;;;11.00;5.10;;;2.40;99.90;;;;;;5091932;28;20297;-69
2021/03/09 00:28:38;;;;;;;7.43;5.60;;;2.40;99.90;;;;;;5092233;28;20222;-71
2021/03/09 00:31:04;;;;;;;8.77;6.10;;;2.40;99.90;;;;;;5092275;28;20229;-70
2021/03/09 00:33:30;;;;;;;9.43;5.05;;;2.40;99.90;;;;;;5092330;28;20263;-71
2021/03/09 00:35:57;;;;;;;9.52;5.68;;;2.30;99.90;;;;;;5095187;28;20735;-69
2021/03/09 00:38:23;;;;;;;13.70;7.05;;;2.30;99.90;;;;;;5096397;28;20212;-71
2021/03/09 00:40:49;;;;;;;11.38;6.35;;;2.30;99.90;;;;;;5096116;28;20256;-69
2021/03/09 00:43:17;;;;;;;11.73;6.00;;;2.30;99.90;;;;;;5096361;28;20206;-69
2021/03/09 00:45:43;;;;;;;8.95;6.22;;;2.30;99.90;;;;;;5096130;28;20240;-70
2021/03/09 00:48:09;;;;;;;12.63;6.07;;;2.30;99.90;;;;;;5096008;28;20308;-70
2021/03/09 00:50:36;;;;;;;10.00;6.00;;;2.20;99.90;;;;;;5096049;28;20202;-70
2021/03/09 00:53:02;;;;;;;8.55;4.95;;;2.30;99.90;;;;;;5096075;28;20288;-71
2021/03/09 00:55:28;;;;;;;12.50;6.35;;;2.20;99.90;;;;;;5095992;28;20201;-71
2021/03/09 00:57:56;;;;;;;8.88;6.75;;;2.20;99.90;;;;;;5096016;28;20202;-70
2021/03/09 01:00:23;;;;;;;8.70;6.43;;;2.30;99.90;;;;;;5096041;28;20220;-71
2021/03/09 01:02:50;;;;;;;9.38;5.85;;;2.40;99.90;;;;;;5095875;28;20229;-71
2021/03/09 01:05:17;;;;;;;9.10;6.03;;;2.40;99.90;;;;;;5095923;28;20313;-69
2021/03/09 01:07:43;;;;;;;11.95;5.00;;;2.40;99.90;;;;;;5095339;28;20851;-70
2021/03/09 01:10:11;;;;;;;13.13;5.93;;;2.40;99.90;;;;;;5095833;28;20240;-70
2021/03/09 01:12:37;;;;;;;14.07;5.95;;;2.40;99.90;;;;;;5095813;28;20221;-70
2021/03/09 01:15:05;;;;;;;11.43;5.55;;;2.40;99.90;;;;;;5095795;28;20202;-70
2021/03/09 01:17:32;;;;;;;8.38;5.47;;;2.30;99.90;;;;;;5095584;28;20233;-70
2021/03/09 01:19:59;;;;;;;7.55;5.50;;;2.30;99.90;;;;;;5095693;28;20250;-73
2021/03/09 01:22:25;;;;;;;11.82;6.85;;;2.20;99.90;;;;;;5095218;28;20217;-74
2021/03/09 01:24:52;;;;;;;12.75;6.13;;;2.20;99.90;;;;;;5095738;28;20209;-74
2021/03/09 01:27:18;;;;;;;8.65;5.72;;;2.20;99.90;;;;;;5095252;28;20205;-74
2021/03/09 01:29:44;;;;;;;9.60;5.13;;;2.20;99.90;;;;;;5095500;28;20721;-72
2021/03/09 01:32:11;;;;;;;11.32;6.03;;;2.10;99.90;;;;;;5095214;28;20228;-71
2021/03/09 01:34:38;;;;;;;8.52;5.07;;;2.20;99.90;;;;;;5095291;28;20205;-71
2021/03/09 01:37:05;;;;;;;9.07;5.15;;;2.20;99.90;;;;;;5094891;28;20198;-71
2021/03/09 01:39:32;;;;;;;12.65;5.82;;;2.20;99.90;;;;;;5095396;28;20202;-72
2021/03/09 01:41:58;;;;;;;10.35;5.72;;;2.10;99.90;;;;;;5095186;28;20313;-71
2021/03/09 01:44:25;;;;;;;11.52;5.70;;;2.10;99.90;;;;;;5095146;28;20332;-72
2021/03/09 01:46:51;;;;;;;9.75;5.30;;;2.10;99.90;;;;;;5094555;28;20201;-72
2021/03/09 01:49:18;;;;;;;9.55;5.28;;;2.10;99.90;;;;;;5095125;28;20222;-72
2021/03/09 01:51:46;;;;;;;7.40;4.28;;;2.10;99.90;;;;;;5094640;28;20309;-72
2021/03/09 01:54:13;;;;;;;12.13;5.93;;;2.10;99.90;;;;;;5095150;28;20206;-72
2021/03/09 01:56:41;;;;;;;7.85;4.82;;;2.10;99.90;;;;;;5094609;28;20692;-71
2021/03/09 01:59:08;;;;;;;8.45;5.10;;;2.10;99.90;;;;;;5095134;28;20564;-71
2021/03/09 02:01:35;;;;;;;8.05;5.38;;;2.10;99.90;;;;;;5094663;28;20313;-72
2021/03/09 02:04:01;;;;;;;9.48;5.03;;;2.10;99.90;;;;;;5094675;28;20785;-72
2021/03/09 02:06:28;;;;;;;10.88;5.90;;;2.10;99.90;;;;;;5094452;28;20240;-71
2021/03/09 02:08:55;;;;;;;12.20;5.57;;;2.10;99.90;;;;;;5094722;28;20286;-72
2021/03/09 02:11:35;;;;;;;11.60;5.10;;;2.10;99.90;;;;;;5094688;28;20222;-71
2021/03/09 02:14:10;;;;;;;8.02;5.22;;;2.00;99.90;;;;;;5094601;28;20668;-71
2021/03/09 02:16:44;;;;;;;10.20;5.75;;;2.00;99.90;;;;;;5094252;28;20287;-72
2021/03/09 02:19:43;;;;;;;9.60;5.68;;;2.00;99.90;;;;;;5094729;28;20206;-71
2021/03/09 02:22:31;;;;;;;10.73;4.43;;;2.00;99.90;;;;;;5094302;28;20333;-72
2021/03/09 02:25:13;;;;;;;8.40;4.40;;;2.00;99.90;;;;;;5094326;28;20209;-71
2021/03/09 02:28:00;;;;;;;10.20;5.38;;;2.00;99.90;;;;;;5094174;28;20233;-71
2021/03/09 02:30:32;;;;;;;12.50;6.18;;;2.00;99.90;;;;;;5085600;28;20202;-71
2021/03/09 02:33:09;;;;;;;10.93;4.55;;;2.00;99.90;;;;;;5094228;28;20296;-72
2021/03/09 02:35:40;;;;;;;8.63;5.30;;;1.90;99.90;;;;;;5094123;28;20255;-71
2021/03/09 02:38:08;;;;;;;8.65;4.47;;;1.80;99.90;;;;;;5093913;28;20246;-71
2021/03/09 02:40:36;;;;;;;9.40;5.22;;;1.80;99.90;;;;;;5094012;28;20205;-71
2021/03/09 02:43:07;;;;;;;10.55;6.13;;;1.80;99.90;;;;;;5094688;28;20202;-71
2021/03/09 02:45:35;;;;;;;12.07;5.00;;;1.70;99.90;;;;;;5095451;28;20212;-72
2021/03/09 02:48:03;;;;;;;11.18;5.63;;;1.70;99.90;;;;;;5095009;28;20230;-73
2021/03/09 02:50:32;;;;;;;12.70;5.47;;;1.80;99.90;;;;;;5095217;28;20197;-73
2021/03/09 02:53:05;;;;;;;8.80;4.93;;;1.80;99.90;;;;;;5095743;28;20210;-73
2021/03/09 02:55:33;;;;;;;10.48;5.65;;;1.90;99.90;;;;;;5095650;28;20258;-73
2021/03/09 02:58:01;;;;;;;8.57;5.57;;;1.90;99.90;;;;;;5094667;28;20705;-73
2021/03/09 03:00:27;;;;;;;10.57;5.55;;;2.00;99.90;;;;;;5095119;28;20668;-73
2021/03/09 03:02:56;;;;;;;11.55;5.13;;;2.00;99.90;;;;;;5094812;28;20293;-73
2021/03/09 03:05:23;;;;;;;10.80;5.68;;;2.00;99.90;;;;;;5095285;28;20543;-73
2021/03/09 03:07:51;;;;;;;10.98;6.03;;;2.00;99.90;;;;;;5094660;28;20222;-73
2021/03/09 03:10:19;;;;;;;11.07;6.30;;;2.00;99.90;;;;;;5094869;28;20293;-73
2021/03/09 03:12:47;;;;;;;9.65;5.40;;;2.00;99.90;;;;;;5094774;28;20230;-73
2021/03/09 03:15:15;;;;;;;11.90;6.10;;;2.10;99.90;;;;;;5095062;28;20233;-73
2021/03/09 03:17:43;;;;;;;9.15;5.15;;;2.00;99.90;;;;;;5094833;28;20202;-73
2021/03/09 03:20:14;;;;;;;9.43;6.05;;;2.10;99.90;;;;;;5094925;28;20660;-73
2021/03/09 03:22:42;;;;;;;9.20;5.65;;;2.00;99.90;;;;;;5095290;28;20226;-73
2021/03/09 03:25:10;;;;;;;11.52;6.20;;;2.00;99.90;;;;;;5095092;28;20671;-73
2021/03/09 03:27:39;;;;;;;9.23;6.03;;;1.90;99.90;;;;;;5094228;28;20293;-73
2021/03/09 03:30:08;;;;;;;9.90;4.90;;;1.90;99.90;;;;;;5094571;28;20873;-73
2021/03/09 03:32:35;;;;;;;12.52;7.13;;;1.90;99.90;;;;;;5094363;28;20762;-73
2021/03/09 03:35:02;;;;;;;11.70;5.82;;;2.00;99.90;;;;;;5094842;28;20202;-73
2021/03/09 03:37:30;;;;;;;8.93;5.38;;;1.90;99.90;;;;;;5094180;28;20212;-73
2021/03/09 03:39:56;;;;;;;8.52;5.10;;;2.00;99.90;;;;;;5094907;28;20293;-73
2021/03/09 03:42:23;;;;;;;9.10;5.93;;;2.00;99.90;;;;;;5094377;28;20229;-73
2021/03/09 03:44:49;;;;;;;10.65;5.25;;;2.00;99.90;;;;;;5094309;28;20304;-73
2021/03/09 03:47:15;;;;;;;9.20;6.07;;;2.00;99.90;;;;;;5094204;28;20656;-73
2021/03/09 03:49:42;;;;;;;8.73;5.45;;;2.00;99.90;;;;;;5094485;28;20229;-73
2021/03/09 03:52:17;;;;;;;8.60;6.00;;;2.00;99.90;;;;;;5094522;28;20263;-73
2021/03/09 03:54:52;;;;;;;12.63;5.70;;;2.00;99.90;;;;;;5094297;28;20243;-73
2021/03/09 03:57:25;;;;;;;13.02;5.88;;;1.90;99.90;;;;;;5094183;28;20288;-73
2021/03/09 03:59:57;;;;;;;10.73;6.40;;;2.00;99.90;;;;;;5094303;28;20200;-73
2021/03/09 04:02:24;;;;;;;10.85;6.45;;;2.00;99.90;;;;;;5094331;28;20692;-73
2021/03/09 04:04:51;;;;;;;8.88;5.95;;;1.90;99.90;;;;;;5094029;28;20293;-73
2021/03/09 04:07:23;;;;;;;13.30;6.30;;;1.90;99.90;;;;;;5094501;28;20202;-73
2021/03/09 04:09:52;;;;;;;9.77;5.53;;;2.00;99.90;;;;;;5094174;28;20755;-73
2021/03/09 04:12:19;;;;;;;12.75;6.43;;;1.80;99.90;;;;;;5094351;28;20253;-73
2021/03/09 04:14:46;;;;;;;9.02;5.30;;;1.70;99.90;;;;;;5094281;28;20542;-73
2021/03/09 04:17:13;;;;;;;13.02;5.90;;;1.80;99.90;;;;;;5093740;28;20297;-73
2021/03/09 04:19:40;;;;;;;9.85;5.40;;;1.70;99.90;;;;;;5093557;28;20202;-73
2021/03/09 04:22:08;;;;;;;14.63;6.15;;;1.80;99.90;;;;;;5093979;28;20222;-73
2021/03/09 04:24:34;;;;;;;10.20;5.93;;;1.80;99.90;;;;;;5094032;28;20288;-73
2021/03/09 04:27:02;;;;;;;11.60;5.97;;;1.70;99.90;;;;;;5093548;28;20202;-73
2021/03/09 04:29:29;;;;;;;12.57;5.80;;;1.80;99.90;;;;;;5094051;28;20232;-73
2021/03/09 04:31:56;;;;;;;12.02;6.60;;;1.80;99.90;;;;;;5093973;28;20222;-73
2021/03/09 04:34:22;;;;;;;10.60;5.65;;;1.90;99.90;;;;;;5093849;28;20605;-72
2021/03/09 04:36:49;;;;;;;12.00;6.30;;;1.90;99.90;;;;;;5093500;28;20348;-73
2021/03/09 04:39:16;;;;;;;11.30;6.80;;;2.00;99.90;;;;;;5093897;28;20647;-72
2021/03/09 04:41:42;;;;;;;11.73;6.68;;;2.00;99.90;;;;;;5093930;28;20267;-72
2021/03/09 04:44:10;;;;;;;12.70;6.60;;;1.90;99.90;;;;;;5094323;28;20208;-73
2021/03/09 04:46:37;;;;;;;11.50;6.03;;;1.90;99.90;;;;;;5093110;28;20741;-73
2021/03/09 04:49:05;;;;;;;9.35;5.13;;;1.90;99.90;;;;;;5093632;28;20244;-73
2021/03/09 04:51:35;;;;;;;10.07;5.60;;;1.90;99.90;;;;;;5093747;28;20268;-73
2021/03/09 04:54:02;;;;;;;12.52;6.20;;;1.80;99.90;;;;;;5093856;28;20212;-73
2021/03/09 04:56:29;;;;;;;11.05;5.65;;;1.90;99.90;;;;;;5093509;28;20206;-73
2021/03/09 04:58:55;;;;;;;12.45;5.95;;;1.90;99.90;;;;;;5093938;28;20236;-73
2021/03/09 05:01:22;;;;;;;9.38;5.05;;;1.80;99.90;;;;;;5093151;28;20222;-73
2021/03/09 05:03:48;;;;;;;12.27;6.50;;;1.90;99.90;;;;;;5093629;28;20205;-73
2021/03/09 05:06:15;;;;;;;8.50;5.28;;;1.90;99.90;;;;;;5093184;28;20313;-73
2021/03/09 05:08:41;;;;;;;11.05;5.88;;;1.90;99.90;;;;;;5093485;28;20250;-73
2021/03/09 05:11:07;;;;;;;11.88;6.70;;;2.00;99.90;;;;;;5093706;28;20254;-72
2021/03/09 05:13:34;;;;;;;10.60;6.45;;;2.00;99.90;;;;;;5094123;28;20202;-73
2021/03/09 05:16:00;;;;;;;10.95;6.40;;;2.00;99.90;;;;;;5093210;28;20213;-73
2021/03/09 05:18:27;;;;;;;11.82;5.55;;;2.00;99.90;;;;;;5093489;28;20233;-73
2021/03/09 05:20:54;;;;;;;12.43;6.68;;;1.90;99.90;;;;;;5094676;28;20232;-73
2021/03/09 05:23:20;;;;;;;13.32;6.25;;;1.80;99.90;;;;;;5097242;28;20659;-73
2021/03/09 05:25:46;;;;;;;14.15;5.90;;;1.90;99.90;;;;;;5096898;28;20301;-72
2021/03/09 05:28:12;;;;;;;12.25;7.07;;;1.90;99.90;;;;;;5097264;28;20240;-73
2021/03/09 05:30:39;;;;;;;12.38;5.97;;;1.90;99.90;;;;;;5096958;28;20230;-73
2021/03/09 05:33:06;;;;;;;7.70;5.50;;;1.90;99.90;;;;;;5097219;28;20289;-73
2021/03/09 05:35:33;;;;;;;10.85;6.80;;;1.90;99.90;;;;;;5097060;28;20209;-73
2021/03/09 05:37:59;;;;;;;12.18;6.43;;;1.90;99.90;;;;;;5097023;28;20285;-73
2021/03/09 05:40:26;;;;;;;12.63;7.15;;;1.90;99.90;;;;;;5097216;28;20220;-73
2021/03/09 05:42:53;;;;;;;8.95;5.20;;;1.80;99.90;;;;;;5097087;28;20222;-73
2021/03/09 05:45:21;;;;;;;12.05;7.20;;;1.80;99.90;;;;;;5096598;28;20222;-73
2021/03/09 05:47:48;;;;;;;11.48;6.65;;;1.80;99.90;;;;;;5096600;28;20283;-73
2021/03/09 05:50:15;;;;;;;15.20;7.03;;;1.90;99.90;;;;;;5096850;28;20288;-73
2021/03/09 05:52:42;;;;;;;11.13;6.43;;;2.00;99.90;;;;;;5097063;28;20225;-73
2021/03/09 05:55:10;;;;;;;11.27;5.85;;;2.00;99.90;;;;;;5096874;28;20325;-72
2021/03/09 05:57:37;;;;;;;14.10;7.30;;;1.90;99.90;;;;;;5096004;28;20216;-73
2021/03/09 06:00:05;;;;;;;12.10;6.57;;;1.90;99.90;;;;;;5096268;28;20201;-73
2021/03/09 06:02:31;;;;;;;11.80;6.05;;;1.90;99.90;;;;;;5096323;28;20226;-73
2021/03/09 06:04:58;;;;;;;13.50;7.05;;;2.00;99.90;;;;;;5096521;28;20298;-73
2021/03/09 06:07:24;;;;;;;12.50;6.70;;;2.10;99.90;;;;;;5095982;28;20198;-73
2021/03/09 06:09:51;;;;;;;12.55;6.03;;;2.00;99.90;;;;;;5096574;28;20553;-73
2021/03/09 06:12:20;;;;;;;16.42;7.63;;;2.10;99.90;;;;;;5096260;28;20226;-73
2021/03/09 06:15:00;;;;;;;13.30;6.78;;;1.80;99.90;;;;;;5096261;28;20206;-73
2021/03/09 06:17:28;;;;;;;10.30;6.15;;;1.50;99.90;;;;;;5096214;28;20209;-73
2021/03/09 06:19:55;;;;;;;10.60;7.20;;;1.30;99.90;;;;;;5096371;28;20530;-73
2021/03/09 06:22:37;;;;;;;11.98;6.72;;;1.20;99.90;;;;;;5096266;28;20333;-73
2021/03/09 06:25:06;;;;;;;18.90;6.53;;;1.20;99.90;;;;;;5095872;28;20209;-73
2021/03/09 06:27:33;;;;;;;13.88;8.18;;;1.40;99.90;;;;;;5095769;28;20270;-73
2021/03/09 06:30:00;;;;;;;11.15;6.38;;;1.60;99.90;;;;;;5096047;28;20222;-73
2021/03/09 06:32:37;;;;;;;16.20;10.00;;;1.70;99.90;;;;;;5094032;28;20515;-73
2021/03/09 06:35:05;;;;;;;22.80;8.07;;;1.70;99.90;;;;;;5095683;28;20531;-73
2021/03/09 06:37:31;;;;;;;14.70;8.13;;;1.70;99.90;;;;;;5095647;28;20293;-73
2021/03/09 06:40:03;;;;;;;13.68;7.47;;;1.80;99.90;;;;;;5096186;28;20249;-73
2021/03/09 06:42:35;;;;;;;14.38;7.32;;;1.80;99.90;;;;;;5096052;28;20233;-73
2021/03/09 06:45:05;;;;;;;12.00;5.65;;;1.70;99.90;;;;;;5095381;28;20261;-73
2021/03/09 06:47:37;;;;;;;15.77;7.75;;;1.70;99.90;;;;;;5095057;28;20301;-73
2021/03/09 06:50:07;;;;;;;12.25;6.38;;;1.70;99.90;;;;;;5095477;28;20221;-73
2021/03/09 06:52:33;;;;;;;12.75;7.60;;;1.70;99.90;;;;;;5095742;28;20264;-73
2021/03/09 06:55:00;;;;;;;12.98;6.95;;;1.60;99.90;;;;;;5095643;28;20202;-73
2021/03/09 06:57:26;;;;;;;13.80;7.28;;;1.60;99.90;;;;;;5094852;28;20198;-73
2021/03/09 06:59:55;;;;;;;11.30;7.60;;;1.80;99.90;;;;;;5095653;28;20285;-73
2021/03/09 07:02:22;;;;;;;18.13;7.78;;;1.80;99.90;;;;;;5095310;28;20218;-73
2021/03/09 07:04:50;;;;;;;13.40;8.23;;;1.80;99.90;;;;;;5095090;28;20258;-73
2021/03/09 07:07:23;;;;;;;15.65;8.50;;;1.90;99.90;;;;;;5095036;28;20298;-73
2021/03/09 07:09:54;;;;;;;12.32;7.80;;;1.80;99.90;;;;;;5095325;28;20226;-73
2021/03/09 07:12:21;;;;;;;15.07;8.60;;;1.90;99.90;;;;;;5095367;28;20308;-73
2021/03/09 07:14:49;;;;;;;21.13;10.35;;;1.90;99.90;;;;;;5094884;28;20287;-73
2021/03/09 07:17:20;;;;;;;19.20;10.35;;;2.00;99.90;;;;;;5094892;28;20210;-73
2021/03/09 07:19:46;;;;;;;22.40;11.30;;;2.00;99.90;;;;;;5095141;28;20251;-73
2021/03/09 07:22:15;;;;;;;18.30;9.32;;;2.00;99.90;;;;;;5095019;28;20313;-73
2021/03/09 07:24:48;;;;;;;16.02;9.60;;;2.00;99.90;;;;;;5095117;28;20293;-73
2021/03/09 07:27:18;;;;;;;15.77;8.48;;;2.10;99.90;;;;;;5094677;28;20206;-73
2021/03/09 07:29:51;;;;;;;18.95;8.90;;;2.20;99.90;;;;;;5094767;28;20230;-73
2021/03/09 07:32:23;;;;;;;17.05;9.07;;;2.30;99.90;;;;;;5095074;28;20249;-73
2021/03/09 07:34:50;;;;;;;15.45;9.82;;;2.40;99.90;;;;;;5094812;28;20738;-73
2021/03/09 07:37:17;;;;;;;15.98;10.20;;;2.40;99.90;;;;;;5094787;28;20205;-73
2021/03/09 07:39:44;;;;;;;17.58;9.95;;;2.40;99.90;;;;;;5094545;28;20194;-73
2021/03/09 07:42:11;;;;;;;15.10;8.88;;;2.60;99.90;;;;;;5094624;28;20245;-74
2021/03/09 07:44:40;;;;;;;16.02;8.82;;;2.70;99.90;;;;;;5094418;28;20208;-74
2021/03/09 07:47:07;;;;;;;15.65;9.13;;;3.00;99.90;;;;;;5094141;28;20212;-73
2021/03/09 07:49:35;;;;;;;18.95;10.60;;;3.20;99.90;;;;;;5094638;28;20232;-74
2021/03/09 07:52:13;;;;;;;17.80;10.35;;;3.20;99.90;;;;;;5094250;28;20634;-73
2021/03/09 07:55:00;;;;;;;16.60;9.77;;;3.10;99.90;;;;;;5094371;28;20206;-74
2021/03/09 07:57:27;;;;;;;14.55;8.98;;;3.30;99.90;;;;;;5094040;28;20648;-74
2021/03/09 07:59:58;;;;;;;18.75;9.60;;;3.20;99.90;;;;;;5094089;28;20195;-73
2021/03/09 08:02:55;;;;;;;15.77;8.52;;;3.40;99.90;;;;;;5094463;28;20244;-74
2021/03/09 08:05:24;;;;;;;14.25;9.75;;;3.60;99.90;;;;;;5094099;28;20241;-74
2021/03/09 08:07:57;;;;;;;14.60;9.02;;;3.90;99.90;;;;;;5094016;28;20208;-74
2021/03/09 08:10:44;;;;;;;18.08;10.05;;;4.10;99.90;;;;;;5094476;28;20339;-73
2021/03/09 08:13:25;;;;;;;17.63;10.35;;;4.30;99.90;;;;;;5093945;28;20235;-74
2021/03/09 08:15:51;;;;;;;17.92;10.18;;;4.40;99.90;;;;;;5094169;28;20237;-73
2021/03/09 08:18:45;;;;;;;18.60;9.95;;;4.50;99.90;;;;;;5093407;28;20734;-73
2021/03/09 08:21:12;;;;;;;19.98;10.50;;;4.40;99.90;;;;;;5058107;28;20305;-74
2021/03/09 08:23:57;;;;;;;20.30;10.88;;;4.40;99.90;;;;;;5093970;28;20212;-73
2021/03/09 08:26:46;;;;;;;22.60;11.45;;;4.40;99.90;;;;;;5093861;28;20260;-74
2021/03/09 08:29:39;;;;;;;21.13;11.80;;;4.50;99.90;;;;;;5094059;28;20222;-73
2021/03/09 08:32:28;;;;;;;23.15;12.20;;;4.70;99.90;;;;;;5057379;28;20229;-74
2021/03/09 08:35:34;;;;;;;18.23;11.45;;;4.90;99.90;;;;;;5094014;28;20288;-74
2021/03/09 08:38:16;;;;;;;19.90;11.18;;;5.10;99.90;;;;;;5093259;28;20241;-74
2021/03/09 08:41:13;;;;;;;18.48;10.93;;;5.30;99.90;;;;;;5093641;28;20202;-73
2021/03/09 08:43:43;;;;;;;21.23;11.40;;;5.50;99.90;;;;;;5031620;28;20626;-74
2021/03/09 08:46:11;;;;;;;17.77;10.90;;;5.60;99.90;;;;;;5080398;28;20214;-74
2021/03/09 08:48:49;;;;;;;25.52;11.55;;;5.80;99.90;;;;;;5093584;28;20314;-73
2021/03/09 08:51:43;;;;;;;18.23;11.32;;;5.80;99.90;;;;;;5093748;28;20259;-73
2021/03/09 08:54:27;;;;;;;17.70;10.40;;;5.90;99.90;;;;;;5057560;28;20213;-73
2021/03/09 08:56:55;;;;;;;20.35;11.85;;;5.90;99.90;;;;;;5096412;28;20294;-73
2021/03/09 08:59:22;;;;;;;23.27;12.23;;;6.10;99.90;;;;;;5097745;28;20198;-74
2021/03/09 09:01:51;;;;;;;16.30;10.85;;;6.20;99.80;;;;;;5097575;28;20225;-74
2021/03/09 09:04:18;;;;;;;19.42;12.55;;;6.40;99.80;;;;;;5082380;28;20321;-75
2021/03/09 09:06:45;;;;;;;19.30;11.23;;;6.60;99.30;;;;;;5095882;28;20205;-75
2021/03/09 09:09:12;;;;;;;24.02;13.05;;;6.60;98.50;;;;;;5095865;28;20218;-75
2021/03/09 09:11:40;;;;;;;16.95;11.80;;;6.70;98.50;;;;;;5095776;28;20312;-75
2021/03/09 09:14:17;;;;;;;21.67;11.95;;;6.60;98.40;;;;;;5095999;28;20288;-75
2021/03/09 09:16:44;;;;;;;18.90;11.48;;;6.60;98.30;;;;;;5095441;28;20293;-74
2021/03/09 09:19:10;;;;;;;17.85;12.30;;;6.70;97.80;;;;;;5095712;28;20263;-74
2021/03/09 09:21:44;;;;;;;23.23;11.60;;;6.70;98.10;;;;;;5095597;28;20218;-74
2021/03/09 09:24:19;;;;;;;18.95;10.88;;;7.00;98.60;;;;;;5095978;28;20211;-74
2021/03/09 09:26:58;;;;;;;20.95;11.98;;;7.20;97.90;;;;;;5095389;28;20296;-74
2021/03/09 09:29:24;;;;;;;22.75;13.43;;;7.40;97.10;;;;;;5095632;28;20220;-74
2021/03/09 09:31:59;;;;;;;20.40;10.68;;;7.20;96.60;;;;;;5095596;28;20218;-74
2021/03/09 09:34:36;;;;;;;19.75;11.68;;;7.30;96.60;;;;;;5095857;28;20198;-74
2021/03/09 09:37:14;;;;;;;23.17;11.95;;;7.50;96.20;;;;;;5095233;28;20202;-74
2021/03/09 09:39:41;;;;;;;21.92;12.63;;;7.50;95.80;;;;;;5095611;28;20198;-74
2021/03/09 09:42:15;;;;;;;19.55;12.43;;;7.60;95.60;;;;;;5095499;28;20715;-73
2021/03/09 09:44:42;;;;;;;28.00;13.75;;;7.70;95.30;;;;;;5095445;28;20622;-73
2021/03/09 09:47:10;;;;;;;18.92;12.45;;;7.70;95.00;;;;;;5095071;28;20212;-73
2021/03/09 09:49:38;;;;;;;17.40;12.38;;;7.80;94.80;;;;;;5095308;28;20275;-73
2021/03/09 09:52:14;;;;;;;20.80;13.43;;;7.90;94.60;;;;;;5095540;28;20222;-75
2021/03/09 09:54:50;;;;;;;22.85;13.25;;;8.00;94.10;;;;;;5096551;28;20288;-75
2021/03/09 09:57:18;;;;;;;27.77;13.35;;;8.00;93.80;;;;;;5096526;28;20202;-76
2021/03/09 09:59:44;;;;;;;24.67;13.10;;;8.00;93.90;;;;;;5096627;28;20209;-75
2021/03/09 10:02:22;;;;;;;25.38;13.48;;;7.90;93.70;;;;;;5096881;28;20312;-75
2021/03/09 10:04:48;;;;;;;25.50;14.15;;;8.00;93.70;;;;;;5096753;28;20205;-74
2021/03/09 10:07:17;;;;;;;19.08;13.40;;;8.20;93.80;;;;;;5095963;28;20228;-74
2021/03/09 10:10:05;;;;;;;28.38;13.75;;;8.00;93.40;;;;;;5096245;28;20229;-74
2021/03/09 10:12:33;;;;;;;23.13;13.73;;;8.10;93.60;;;;;;5096590;28;20222;-74
2021/03/09 10:15:00;;;;;;;23.27;12.75;;;8.20;93.20;;;;;;5096465;28;20209;-74
2021/03/09 10:17:26;;;;;;;24.42;13.82;;;8.10;93.30;;;;;;5095854;28;20240;-73
2021/03/09 10:19:54;;;;;;;21.90;13.20;;;8.20;93.20;;;;;;5096402;28;20202;-74
2021/03/09 10:22:22;;;;;;;23.00;13.98;;;8.40;92.90;;;;;;5096367;28;20226;-74
2021/03/09 10:24:48;;;;;;;22.92;14.48;;;8.70;92.30;;;;;;5095844;28;20655;-74
2021/03/09 10:27:17;;;;;;;20.95;13.18;;;8.80;91.60;;;;;;5096035;28;20289;-74
2021/03/09 10:29:44;;;;;;;22.08;13.70;;;8.90;91.10;;;;;;5096169;28;20312;-74
2021/03/09 10:32:15;;;;;;;24.58;14.35;;;9.10;90.80;;;;;;5096233;28;20232;-74
2021/03/09 10:34:43;;;;;;;24.52;14.07;;;9.30;90.10;;;;;;5095803;28;20209;-74
2021/03/09 10:37:11;;;;;;;22.02;12.98;;;9.40;90.00;;;;;;5095737;28;20230;-74
2021/03/09 10:39:39;;;;;;;20.83;12.77;;;9.40;89.60;;;;;;5096721;28;20194;-74
2021/03/09 10:42:27;;;;;;;18.25;12.88;;;9.50;88.90;;;;;;5095813;28;20310;-74
2021/03/09 10:44:55;;;;;;;18.73;12.20;;;9.70;88.10;;;;;;5095699;28;20306;-74
2021/03/09 10:47:22;;;;;;;17.13;12.32;;;9.70;87.00;;;;;;5095457;28;20206;-74
2021/03/09 10:49:49;;;;;;;21.23;13.57;;;9.80;86.70;;;;;;5095557;28;20321;-74
2021/03/09 10:52:15;;;;;;;21.02;13.02;;;9.90;85.70;;;;;;5095795;28;20257;-74
2021/03/09 10:54:41;;;;;;;20.40;13.45;;;9.90;85.80;;;;;;5095745;28;20290;-74
2021/03/09 10:57:09;;;;;;;21.95;13.63;;;10.00;83.40;;;;;;5095112;28;20668;-74
2021/03/09 10:59:36;;;;;;;20.83;12.75;;;10.00;83.30;;;;;;5095234;28;20289;-74
2021/03/09 11:02:07;;;;;;;19.80;11.80;;;9.70;83.30;;;;;;5095477;28;20271;-74
2021/03/09 11:04:33;;;;;;;21.45;12.73;;;9.80;84.80;;;;;;5095275;28;20202;-74
2021/03/09 11:06:59;;;;;;;18.83;12.57;;;9.80;84.20;;;;;;5094901;28;20238;-74
2021/03/09 11:09:26;;;;;;;21.23;12.68;;;9.80;84.30;;;;;;5095410;28;20632;-74
2021/03/09 11:11:52;;;;;;;22.52;13.07;;;9.70;83.70;;;;;;5094967;28;20703;-74
2021/03/09 11:14:18;;;;;;;20.27;11.88;;;9.80;83.40;;;;;;5095038;28;20197;-74
2021/03/09 11:16:45;;;;;;;19.67;12.07;;;9.70;83.70;;;;;;5094967;28;20199;-74
2021/03/09 11:19:12;;;;;;;21.00;12.35;;;9.60;83.50;;;;;;5094590;28;20255;-74
2021/03/09 11:21:38;;;;;;;21.27;11.93;;;9.40;83.00;;;;;;5094762;28;20281;-74
2021/03/09 11:24:05;;;;;;;19.00;11.18;;;9.30;85.10;;;;;;5095473;28;20209;-74
2021/03/09 11:26:32;;;;;;;17.15;11.05;;;9.50;84.50;;;;;;5094869;28;20206;-74
2021/03/09 11:28:58;;;;;;;17.23;10.95;;;9.50;83.70;;;;;;5094754;28;20317;-74
2021/03/09 11:31:25;;;;;;;19.52;11.30;;;9.70;83.20;;;;;;5094324;28;20247;-74
2021/03/09 11:33:52;;;;;;;14.32;9.55;;;9.80;81.80;;;;;;5094958;28;20292;-74
2021/03/09 11:36:20;;;;;;;15.25;10.75;;;9.90;81.30;;;;;;5094415;28;20747;-74
2021/03/09 11:38:47;;;;;;;15.70;9.95;;;9.80;80.10;;;;;;5094909;28;20202;-74
2021/03/09 11:41:15;;;;;;;16.50;10.43;;;9.90;80.60;;;;;;5094883;28;20726;-74
2021/03/09 11:43:42;;;;;;;17.15;11.10;;;9.90;80.30;;;;;;5094520;28;20303;-74
2021/03/09 11:46:10;;;;;;;13.13;8.82;;;10.10;78.50;;;;;;5094179;28;20259;-74
2021/03/09 11:48:36;;;;;;;20.23;9.35;;;10.40;76.70;;;;;;5094523;28;20222;-74
2021/03/09 11:51:03;;;;;;;13.93;8.75;;;10.40;75.00;;;;;;5094615;28;20333;-74
2021/03/09 11:53:31;;;;;;;13.02;8.45;;;10.40;74.80;;;;;;5095030;28;20292;-74
2021/03/09 11:55:57;;;;;;;13.85;8.85;;;10.40;75.00;;;;;;5094103;28;20670;-74
2021/03/09 11:58:23;;;;;;;12.13;8.32;;;10.50;73.30;;;;;;5094038;28;20204;-74
2021/03/09 12:00:50;;;;;;;13.77;9.25;;;10.50;73.70;;;;;;5094274;28;20298;-74
2021/03/09 12:03:16;;;;;;;11.80;8.68;;;10.60;73.60;;;;;;5094324;28;20710;-74
2021/03/09 12:05:42;;;;;;;12.15;8.07;;;10.60;70.90;;;;;;5094447;28;20206;-74
2021/03/09 12:08:09;;;;;;;10.93;7.78;;;10.30;71.20;;;;;;5094316;28;20233;-74
2021/03/09 12:10:36;;;;;;;13.70;7.85;;;10.50;71.40;;;;;;5093677;28;20218;-74
2021/03/09 12:13:02;;;;;;;14.43;7.30;;;10.40;70.00;;;;;;5093995;28;20664;-74
2021/03/09 12:15:28;;;;;;;12.73;8.45;;;10.50;69.40;;;;;;5094123;28;20229;-74
2021/03/09 12:17:55;;;;;;;10.10;7.40;;;10.20;67.20;;;;;;5093618;28;20219;-74
2021/03/09 12:20:22;;;;;;;15.43;8.57;;;10.00;68.90;;;;;;5093949;28;20205;-74
2021/03/09 12:22:48;;;;;;;12.13;7.32;;;10.10;69.60;;;;;;5094274;28;20313;-74
2021/03/09 12:25:14;;;;;;;11.77;7.72;;;10.40;69.50;;;;;;5093909;28;20201;-74
2021/03/09 12:27:42;;;;;;;13.00;7.28;;;10.60;64.70;;;;;;5093813;28;20210;-74
2021/03/09 12:30:10;;;;;;;11.48;7.20;;;10.70;65.00;;;;;;5092987;28;20313;-74
2021/03/09 12:32:36;;;;;;;11.55;7.18;;;10.80;64.10;;;;;;5094236;28;20359;-74
2021/03/09 12:35:06;;;;;;;13.68;6.88;;;10.80;64.10;;;;;;5094066;28;20205;-74
2021/03/09 12:37:32;;;;;;;11.60;7.18;;;10.90;63.70;;;;;;5093358;28;20206;-74
2021/03/09 12:39:59;;;;;;;13.82;6.93;;;11.00;64.20;;;;;;5093730;28;20202;-75
2021/03/09 12:42:25;;;;;;;9.23;6.75;;;11.00;63.60;;;;;;5093809;28;20234;-74
2021/03/09 12:44:52;;;;;;;11.82;6.65;;;11.10;62.70;;;;;;5093598;28;20255;-75
2021/03/09 12:47:19;;;;;;;9.43;6.38;;;11.10;63.50;;;;;;5093315;28;20685;-74
2021/03/09 12:49:45;;;;;;;9.25;6.70;;;11.20;63.10;;;;;;5093325;28;20229;-74
2021/03/09 12:52:12;;;;;;;12.45;7.10;;;11.20;63.00;;;;;;5093625;28;20253;-74
2021/03/09 12:54:39;;;;;;;10.07;6.50;;;10.80;60.70;;;;;;5093625;28;20202;-74
2021/03/09 12:57:06;;;;;;;10.25;6.90;;;10.30;62.10;;;;;;5093611;28;20301;-74